createdAt,value
2023-02-11T00:00:33.781Z,23.40
2023-02-11T00:01:33.896Z,22.00
2023-02-11T00:02:33.826Z,22.70
2023-02-11T00:03:33.827Z,23.10
2023-02-11T00:04:33.732Z,23.20
2023-02-11T00:05:33.711Z,22.30
2023-02-11T00:06:33.727Z,21.50
2023-02-11T00:07:33.701Z,23.10
2023-02-11T00:08:33.690Z,22.30
2023-02-11T00:09:33.670Z,21.90
2023-02-11T00:10:33.652Z,22.80
2023-02-11T00:11:33.680Z,21.80
2023-02-11T00:12:33.626Z,22.20
2023-02-11T00:13:33.616Z,21.00
2023-02-11T00:14:33.607Z,20.60
2023-02-11T00:15:33.598Z,21.60
2023-02-11T00:16:33.700Z,22.20
2023-02-11T00:17:33.580Z,21.50
2023-02-11T00:18:33.567Z,20.70
2023-02-11T00:19:33.572Z,21.70
2023-02-11T00:20:33.530Z,21.70
2023-02-11T00:21:33.554Z,21.70
2023-02-11T00:22:33.503Z,21.60
2023-02-11T00:23:33.492Z,22.20
2023-02-11T00:24:33.480Z,23.00
2023-02-11T00:25:33.470Z,21.60
2023-02-11T00:26:33.533Z,21.50
2023-02-11T00:27:33.514Z,20.10
2023-02-11T00:28:33.480Z,20.80
2023-02-11T00:29:33.416Z,20.10
2023-02-11T00:30:33.508Z,21.60
2023-02-11T00:31:33.537Z,22.30
2023-02-11T00:32:33.408Z,21.70
2023-02-11T00:33:33.391Z,21.00
2023-02-11T00:34:33.389Z,20.80
2023-02-11T00:35:33.357Z,19.90
2023-02-11T00:36:33.349Z,20.80
2023-02-11T00:37:33.311Z,21.40
2023-02-11T00:38:33.290Z,21.10
2023-02-11T00:39:33.284Z,20.70
2023-02-11T00:40:33.275Z,21.20
2023-02-11T00:41:33.282Z,21.70
2023-02-11T00:42:33.247Z,20.50
2023-02-11T00:43:33.235Z,21.30
2023-02-11T00:44:33.218Z,20.20
2023-02-11T00:45:33.220Z,20.70
2023-02-11T00:46:33.299Z,21.10
2023-02-11T00:47:33.195Z,20.30
2023-02-11T00:48:33.164Z,21.00
2023-02-11T00:49:33.154Z,19.80
2023-02-11T00:50:33.139Z,20.80
2023-02-11T00:51:33.146Z,20.30
2023-02-11T00:52:33.114Z,20.50
2023-02-11T00:53:33.105Z,20.20
2023-02-11T00:54:33.086Z,20.10
2023-02-11T00:55:33.083Z,19.80
2023-02-11T00:56:33.083Z,19.60
2023-02-11T00:57:33.063Z,19.20
2023-02-11T00:58:33.042Z,19.00
2023-02-11T00:59:33.031Z,19.40
2023-02-11T01:00:33.003Z,18.10
2023-02-11T01:01:33.071Z,18.80
2023-02-11T01:02:33.005Z,16.80
2023-02-11T01:03:33.000Z,18.30
2023-02-11T01:04:32.972Z,16.90
2023-02-11T01:05:33.002Z,18.00
2023-02-11T01:06:32.927Z,16.60
2023-02-11T01:07:32.938Z,17.40
2023-02-11T01:08:32.906Z,18.00
2023-02-11T01:09:32.912Z,17.10
2023-02-11T01:10:32.891Z,17.20
2023-02-11T01:11:32.912Z,17.90
2023-02-11T01:12:35.256Z,16.70
2023-02-11T01:13:32.868Z,18.00
2023-02-11T01:14:32.849Z,17.90
2023-02-11T01:15:32.868Z,17.50
2023-02-11T01:16:32.815Z,17.70
2023-02-11T01:17:32.831Z,17.70
2023-02-11T01:18:32.789Z,17.60
2023-02-11T01:19:32.783Z,18.00
2023-02-11T01:20:32.770Z,19.20
2023-02-11T01:21:32.754Z,17.90
2023-02-11T01:22:32.781Z,17.50
2023-02-11T01:23:32.742Z,18.00
2023-02-11T01:24:32.712Z,18.20
2023-02-11T01:25:32.710Z,17.40
2023-02-11T01:26:32.689Z,17.70
2023-02-11T01:27:32.703Z,17.10
2023-02-11T01:28:32.748Z,18.10
2023-02-11T01:29:32.666Z,17.80
2023-02-11T01:30:32.638Z,18.20
2023-02-11T01:31:32.965Z,19.30
2023-02-11T01:32:32.632Z,18.20
2023-02-11T01:33:32.602Z,17.30
2023-02-11T01:34:32.588Z,18.30
2023-02-11T01:35:32.585Z,18.20
2023-02-11T01:36:32.573Z,18.10
2023-02-11T01:37:32.573Z,17.80
2023-02-11T01:38:32.534Z,18.50
2023-02-11T01:39:32.528Z,18.60
2023-02-11T01:40:32.508Z,17.50
2023-02-11T01:41:32.499Z,17.50
2023-02-11T01:42:32.518Z,18.30
2023-02-11T01:43:32.473Z,18.10
2023-02-11T01:44:32.458Z,18.80
2023-02-11T01:45:32.452Z,19.00
2023-02-11T01:46:32.529Z,18.60
2023-02-11T01:47:32.441Z,19.00
2023-02-11T01:48:32.408Z,19.40
2023-02-11T01:49:32.469Z,19.10
2023-02-11T01:50:32.389Z,19.50
2023-02-11T01:51:32.383Z,17.60
2023-02-11T01:52:32.393Z,19.60
2023-02-11T01:53:32.365Z,17.70
2023-02-11T01:54:32.333Z,18.30
2023-02-11T01:55:32.334Z,18.50
2023-02-11T01:56:32.305Z,18.60
2023-02-11T01:57:32.452Z,18.80
2023-02-11T01:58:32.295Z,18.90
2023-02-11T01:59:32.295Z,18.80
2023-02-11T02:00:32.253Z,18.20
2023-02-11T02:01:32.315Z,18.70
2023-02-11T02:02:32.251Z,17.90
2023-02-11T02:03:32.295Z,18.30
2023-02-11T02:04:32.208Z,17.20
2023-02-11T02:05:32.204Z,17.00
2023-02-11T02:06:32.198Z,16.90
2023-02-11T02:07:32.229Z,16.30
2023-02-11T02:08:32.200Z,16.10
2023-02-11T02:09:32.144Z,16.40
2023-02-11T02:10:32.139Z,16.10
2023-02-11T02:11:32.120Z,16.30
2023-02-11T02:12:32.097Z,14.90
2023-02-11T02:13:32.119Z,15.40
2023-02-11T02:14:32.079Z,14.80
2023-02-11T02:15:32.076Z,15.20
2023-02-11T02:16:32.101Z,15.10
2023-02-11T02:17:32.040Z,15.30
2023-02-11T02:18:32.054Z,15.70
2023-02-11T02:19:32.016Z,16.00
2023-02-11T02:20:31.997Z,14.80
2023-02-11T02:21:32.027Z,15.30
2023-02-11T02:22:32.021Z,15.20
2023-02-11T02:23:31.982Z,15.30
2023-02-11T02:24:31.965Z,14.40
2023-02-11T02:25:31.941Z,13.90
2023-02-11T02:26:31.916Z,15.60
2023-02-11T02:27:31.915Z,14.70
2023-02-11T02:28:31.986Z,14.50
2023-02-11T02:29:31.882Z,14.10
2023-02-11T02:30:31.887Z,15.20
2023-02-11T02:31:31.930Z,14.60
2023-02-11T02:32:31.843Z,14.50
2023-02-11T02:33:31.855Z,14.90
2023-02-11T02:34:31.813Z,15.20
2023-02-11T02:35:31.806Z,14.10
2023-02-11T02:36:31.800Z,13.60
2023-02-11T02:37:31.781Z,15.40
2023-02-11T02:38:31.787Z,14.70
2023-02-11T02:39:31.761Z,15.10
2023-02-11T02:40:31.755Z,15.00
2023-02-11T02:41:31.742Z,15.40
2023-02-11T02:42:31.718Z,15.00
2023-02-11T02:43:31.737Z,14.40
2023-02-11T02:44:31.697Z,15.10
2023-02-11T02:45:31.682Z,15.10
2023-02-11T02:46:31.745Z,14.50
2023-02-11T02:47:31.708Z,14.90
2023-02-11T02:48:31.670Z,15.00
2023-02-11T02:49:31.642Z,15.30
2023-02-11T02:50:31.627Z,14.80
2023-02-11T02:51:31.611Z,15.00
2023-02-11T02:52:31.595Z,15.00
2023-02-11T02:53:32.027Z,14.30
2023-02-11T02:54:31.583Z,14.70
2023-02-11T02:55:31.554Z,14.20
2023-02-11T02:56:31.544Z,14.50
2023-02-11T02:57:31.536Z,15.10
2023-02-11T02:58:31.540Z,14.90
2023-02-11T02:59:31.505Z,14.60
2023-02-11T03:00:31.538Z,14.60
2023-02-11T03:01:31.479Z,14.80
2023-02-11T03:02:31.465Z,14.30
2023-02-11T03:03:31.505Z,15.40
2023-02-11T03:04:31.450Z,13.80
2023-02-11T03:05:31.443Z,14.40
2023-02-11T03:06:31.420Z,14.20
2023-02-11T03:07:31.409Z,15.20
2023-02-11T03:08:31.406Z,15.10
2023-02-11T03:09:31.386Z,14.70
2023-02-11T03:10:31.365Z,14.80
2023-02-11T03:11:31.373Z,14.90
2023-02-11T03:12:31.352Z,16.00
2023-02-11T03:13:31.358Z,14.80
2023-02-11T03:14:31.324Z,14.50
2023-02-11T03:15:31.314Z,14.40
2023-02-11T03:16:31.357Z,14.50
2023-02-11T03:17:31.279Z,14.00
2023-02-11T03:18:31.285Z,14.30
2023-02-11T03:19:31.291Z,14.70
2023-02-11T03:20:31.257Z,13.50
2023-02-11T03:21:31.227Z,14.90
2023-02-11T03:22:31.218Z,14.10
2023-02-11T03:23:31.212Z,13.80
2023-02-11T03:24:31.213Z,14.60
2023-02-11T03:25:31.188Z,14.70
2023-02-11T03:26:31.171Z,13.90
2023-02-11T03:27:31.151Z,15.00
2023-02-11T03:28:31.200Z,15.30
2023-02-11T03:29:31.151Z,14.60
2023-02-11T03:30:31.112Z,14.00
2023-02-11T03:31:31.244Z,14.30
2023-02-11T03:32:31.087Z,14.80
2023-02-11T03:33:31.097Z,14.80
2023-02-11T03:34:31.072Z,13.90
2023-02-11T03:35:31.052Z,14.40
2023-02-11T03:36:31.030Z,14.10
2023-02-11T03:37:31.035Z,14.60
2023-02-11T03:38:31.033Z,14.00
2023-02-11T03:39:31.000Z,15.00
2023-02-11T03:40:31.032Z,14.50
2023-02-11T03:41:30.985Z,15.20
2023-02-11T03:42:30.964Z,14.20
2023-02-11T03:43:30.985Z,14.50
2023-02-11T03:44:30.954Z,15.20
2023-02-11T03:45:30.981Z,14.70
2023-02-11T03:46:30.907Z,15.40
2023-02-11T03:47:30.920Z,14.30
2023-02-11T03:48:30.882Z,13.90
2023-02-11T03:49:30.886Z,14.40
2023-02-11T03:50:30.871Z,14.30
2023-02-11T03:51:30.856Z,14.80
2023-02-11T03:52:30.827Z,14.60
2023-02-11T03:53:30.817Z,14.40
2023-02-11T03:54:30.875Z,14.50
2023-02-11T03:55:30.792Z,14.90
2023-02-11T03:56:30.788Z,14.90
2023-02-11T03:57:30.784Z,14.90
2023-02-11T03:58:30.766Z,14.40
2023-02-11T03:59:30.767Z,14.10
2023-02-11T04:00:30.734Z,14.20
2023-02-11T04:01:30.843Z,14.30
2023-02-11T04:02:30.709Z,13.90
2023-02-11T04:03:30.741Z,15.00
2023-02-11T04:04:30.700Z,14.90
2023-02-11T04:05:30.668Z,15.20
2023-02-11T04:06:30.664Z,14.40
2023-02-11T04:07:30.642Z,15.00
2023-02-11T04:08:30.630Z,14.40
2023-02-11T04:09:30.639Z,14.40
2023-02-11T04:10:30.613Z,13.80
2023-02-11T04:11:30.590Z,13.80
2023-02-11T04:12:30.586Z,14.90
2023-02-11T04:13:30.591Z,14.50
2023-02-11T04:14:30.576Z,14.70
2023-02-11T04:15:30.567Z,13.70
2023-02-11T04:16:30.573Z,15.10
2023-02-11T04:17:30.521Z,13.40
2023-02-11T04:18:30.538Z,15.10
2023-02-11T04:19:30.484Z,13.20
2023-02-11T04:20:30.500Z,13.50
2023-02-11T04:21:30.484Z,14.10
2023-02-11T04:22:30.465Z,13.20
2023-02-11T04:23:30.442Z,14.00
2023-02-11T04:24:30.432Z,13.90
2023-02-11T04:25:30.482Z,13.70
2023-02-11T04:26:30.406Z,14.00
2023-02-11T04:27:30.392Z,13.60
2023-02-11T04:28:30.444Z,14.10
2023-02-11T04:29:30.368Z,12.80
2023-02-11T04:30:30.383Z,14.10
2023-02-11T04:31:30.348Z,14.20
2023-02-11T04:32:30.327Z,12.90
2023-02-11T04:33:30.318Z,13.80
2023-02-11T04:34:30.302Z,13.80
2023-02-11T04:35:30.305Z,14.10
2023-02-11T04:36:30.288Z,13.40
2023-02-11T04:37:30.257Z,13.30
2023-02-11T04:38:30.261Z,13.80
2023-02-11T04:39:30.259Z,12.70
2023-02-11T04:40:30.244Z,12.80
2023-02-11T04:41:30.209Z,13.50
2023-02-11T04:42:30.210Z,12.80
2023-02-11T04:43:30.196Z,13.20
2023-02-11T04:44:30.208Z,12.00
2023-02-11T04:45:30.177Z,12.70
2023-02-11T04:46:30.285Z,12.80
2023-02-11T04:47:30.148Z,12.60
2023-02-11T04:48:30.131Z,11.90
2023-02-11T04:49:30.135Z,12.00
2023-02-11T04:50:30.136Z,12.40
2023-02-11T04:51:30.091Z,12.80
2023-02-11T04:52:30.112Z,12.20
2023-02-11T04:53:30.068Z,11.90
2023-02-11T04:54:30.061Z,11.70
2023-02-11T04:55:30.069Z,12.20
2023-02-11T04:56:30.022Z,11.40
2023-02-11T04:57:30.020Z,11.70
2023-02-11T04:58:30.004Z,11.30
2023-02-11T04:59:29.980Z,11.40
2023-02-11T05:00:30.011Z,12.10
2023-02-11T05:01:30.000Z,11.40
2023-02-11T05:02:29.951Z,11.70
2023-02-11T05:03:29.928Z,11.50
2023-02-11T05:04:29.938Z,12.20
2023-02-11T05:05:29.916Z,12.50
2023-02-11T05:06:29.892Z,12.50
2023-02-11T05:07:29.880Z,12.70
2023-02-11T05:08:29.879Z,13.30
2023-02-11T05:09:29.851Z,13.80
2023-02-11T05:10:29.870Z,13.50
2023-02-11T05:11:29.857Z,13.10
2023-02-11T05:12:29.817Z,12.90
2023-02-11T05:13:29.806Z,13.20
2023-02-11T05:14:29.791Z,13.50
2023-02-11T05:15:29.806Z,12.90
2023-02-11T05:16:29.819Z,14.30
2023-02-11T05:17:29.759Z,13.10
2023-02-11T05:18:29.742Z,13.90
2023-02-11T05:19:29.729Z,13.80
2023-02-11T05:20:29.743Z,13.20
2023-02-11T05:21:29.699Z,13.60
2023-02-11T05:22:29.692Z,13.90
2023-02-11T05:23:29.678Z,12.00
2023-02-11T05:24:29.671Z,12.40
2023-02-11T05:25:29.666Z,12.20
2023-02-11T05:26:29.659Z,12.70
2023-02-11T05:27:29.630Z,12.40
2023-02-11T05:28:29.675Z,12.40
2023-02-11T05:29:29.597Z,12.00
2023-02-11T05:30:29.635Z,12.50
2023-02-11T05:31:29.573Z,11.40
2023-02-11T05:32:29.570Z,11.90
2023-02-11T05:33:29.552Z,11.90
2023-02-11T05:34:29.557Z,12.20
2023-02-11T05:35:29.557Z,11.60
2023-02-11T05:36:31.684Z,11.60
2023-02-11T05:37:29.540Z,11.60
2023-02-11T05:38:29.488Z,12.00
2023-02-11T05:39:29.472Z,12.10
2023-02-11T05:40:29.485Z,11.60
2023-02-11T05:41:29.455Z,11.40
2023-02-11T05:42:29.438Z,11.80
2023-02-11T05:43:29.420Z,12.40
2023-02-11T05:44:29.412Z,12.40
2023-02-11T05:45:29.414Z,12.70
2023-02-11T05:46:29.467Z,11.60
2023-02-11T05:47:29.380Z,11.70
2023-02-11T05:48:29.372Z,11.50
2023-02-11T05:49:29.340Z,11.40
2023-02-11T05:50:29.359Z,11.50
2023-02-11T05:51:29.330Z,12.80
2023-02-11T05:52:29.315Z,11.90
2023-02-11T05:53:29.304Z,12.20
2023-02-11T05:54:29.287Z,12.30
2023-02-11T05:55:29.300Z,12.60
2023-02-11T05:56:29.282Z,12.40
2023-02-11T05:57:29.250Z,12.00
2023-02-11T05:58:29.237Z,12.60
2023-02-11T05:59:29.231Z,12.90
2023-02-11T06:00:29.231Z,12.90
2023-02-11T06:01:29.196Z,12.70
2023-02-11T06:02:29.229Z,11.30
2023-02-11T06:03:29.259Z,12.60
2023-02-11T06:04:29.163Z,12.60
2023-02-11T06:05:29.156Z,13.00
2023-02-11T06:06:29.157Z,12.20
2023-02-11T06:07:29.127Z,12.90
2023-02-11T06:08:29.112Z,12.30
2023-02-11T06:09:29.094Z,12.00
2023-02-11T06:10:29.083Z,12.80
2023-02-11T06:11:29.112Z,11.80
2023-02-11T06:12:29.062Z,12.50
2023-02-11T06:13:29.044Z,13.30
2023-02-11T06:14:29.040Z,12.10
2023-02-11T06:15:29.030Z,11.60
2023-02-11T06:16:29.104Z,11.90
2023-02-11T06:17:28.986Z,12.30
2023-02-11T06:18:28.984Z,11.90
2023-02-11T06:19:28.979Z,11.50
2023-02-11T06:20:28.954Z,12.60
2023-02-11T06:21:42.752Z,12.30
2023-02-11T06:22:28.907Z,11.60
2023-02-11T06:23:30.405Z,11.30
2023-02-11T06:24:54.651Z,12.80
2023-02-11T06:25:28.856Z,12.00
2023-02-11T06:26:28.830Z,11.70
2023-02-11T06:27:28.809Z,12.50
2023-02-11T06:28:28.850Z,11.70
2023-02-11T06:29:28.786Z,11.50
2023-02-11T06:30:28.799Z,11.80
2023-02-11T06:31:28.829Z,12.10
2023-02-11T06:32:43.865Z,11.70
2023-02-11T06:33:28.737Z,11.40
2023-02-11T06:34:28.744Z,11.60
2023-02-11T06:35:28.696Z,12.40
2023-02-11T06:36:28.706Z,11.50
2023-02-11T06:37:28.703Z,12.20
2023-02-11T06:38:28.675Z,11.70
2023-02-11T06:39:28.656Z,11.00
2023-02-11T06:40:28.665Z,12.50
2023-02-11T06:41:28.629Z,12.30
2023-02-11T06:42:28.652Z,12.10
2023-02-11T06:43:28.617Z,12.40
2023-02-11T06:44:28.604Z,11.70
2023-02-11T06:45:28.598Z,11.00
2023-02-11T06:46:28.577Z,12.70
2023-02-11T06:47:28.575Z,11.90
2023-02-11T06:48:28.549Z,11.50
2023-02-11T06:49:28.537Z,12.60
2023-02-11T06:50:28.528Z,11.90
2023-02-11T06:51:28.520Z,12.00
2023-02-11T06:52:28.516Z,11.30
2023-02-11T06:53:28.486Z,12.40
2023-02-11T06:54:28.472Z,11.10
2023-02-11T06:55:28.490Z,11.30
2023-02-11T06:56:28.467Z,11.60
2023-02-11T06:57:28.448Z,12.30
2023-02-11T06:58:28.429Z,10.60
2023-02-11T06:59:28.409Z,11.50
2023-02-11T07:00:28.394Z,10.90
2023-02-11T07:01:28.413Z,11.50
2023-02-11T07:02:28.438Z,11.30
2023-02-11T07:03:28.349Z,11.20
2023-02-11T07:04:28.346Z,10.50
2023-02-11T07:05:28.334Z,10.70
2023-02-11T07:06:28.354Z,11.30
2023-02-11T07:07:28.333Z,12.20
2023-02-11T07:08:28.297Z,11.30
2023-02-11T07:09:28.276Z,11.50
2023-02-11T07:10:28.279Z,11.10
2023-02-11T07:11:28.266Z,11.70
2023-02-11T07:12:28.265Z,12.10
2023-02-11T07:13:28.241Z,11.70
2023-02-11T07:14:28.237Z,11.60
2023-02-11T07:15:28.331Z,11.50
2023-02-11T07:16:28.261Z,11.90
2023-02-11T07:17:28.211Z,11.90
2023-02-11T07:18:28.163Z,10.50
2023-02-11T07:19:28.170Z,10.70
2023-02-11T07:20:28.151Z,10.80
2023-02-11T07:21:28.131Z,10.70
2023-02-11T07:22:28.140Z,11.40
2023-02-11T07:23:28.104Z,11.30
2023-02-11T07:24:28.094Z,11.70
2023-02-11T07:25:28.075Z,10.50
2023-02-11T07:26:28.096Z,11.00
2023-02-11T07:27:28.057Z,11.30
2023-02-11T07:28:28.063Z,11.50
2023-02-11T07:29:28.021Z,11.40
2023-02-11T07:30:28.017Z,12.20
2023-02-11T07:31:28.131Z,11.60
2023-02-11T07:32:28.021Z,11.20
2023-02-11T07:33:27.973Z,11.80
2023-02-11T07:34:28.002Z,11.20
2023-02-11T07:35:27.950Z,12.70
2023-02-11T07:36:27.952Z,11.60
2023-02-11T07:37:27.938Z,12.50
2023-02-11T07:38:27.921Z,12.00
2023-02-11T07:39:27.901Z,12.00
2023-02-11T07:40:28.073Z,12.30
2023-02-11T07:41:27.905Z,12.60
2023-02-11T07:42:27.893Z,12.40
2023-02-11T07:43:27.862Z,12.00
2023-02-11T07:44:27.838Z,12.10
2023-02-11T07:45:27.826Z,12.80
2023-02-11T07:46:27.907Z,12.70
2023-02-11T07:47:27.825Z,13.10
2023-02-11T07:48:27.789Z,12.70
2023-02-11T07:49:27.776Z,13.50
2023-02-11T07:50:27.810Z,14.00
2023-02-11T07:51:27.837Z,15.60
2023-02-11T07:52:27.774Z,15.30
2023-02-11T07:53:27.723Z,15.30
2023-02-11T07:54:27.717Z,14.00
2023-02-11T07:55:27.697Z,14.90
2023-02-11T07:56:27.689Z,15.00
2023-02-11T07:57:27.697Z,15.70
2023-02-11T07:58:27.658Z,14.40
2023-02-11T07:59:27.657Z,14.30
2023-02-11T08:00:27.728Z,14.40
2023-02-11T08:01:27.619Z,14.00
2023-02-11T08:02:27.718Z,14.80
2023-02-11T08:03:27.600Z,15.20
2023-02-11T08:04:27.588Z,14.60
2023-02-11T08:05:27.569Z,13.60
2023-02-11T08:06:27.576Z,13.90
2023-02-11T08:07:27.569Z,14.60
2023-02-11T08:08:27.540Z,14.80
2023-02-11T08:09:27.518Z,13.70
2023-02-11T08:10:27.506Z,14.50
2023-02-11T08:11:27.494Z,14.30
2023-02-11T08:12:27.502Z,13.60
2023-02-11T08:13:27.471Z,13.90
2023-02-11T08:14:27.467Z,12.70
2023-02-11T08:15:27.448Z,12.60
2023-02-11T08:16:27.448Z,12.70
2023-02-11T08:17:27.454Z,11.90
2023-02-11T08:18:27.401Z,13.20
2023-02-11T08:19:27.423Z,12.70
2023-02-11T08:20:27.381Z,12.10
2023-02-11T08:21:27.384Z,13.20
2023-02-11T08:22:27.378Z,12.80
2023-02-11T08:23:27.376Z,12.70
2023-02-11T08:24:27.322Z,13.60
2023-02-11T08:25:27.322Z,13.00
2023-02-11T08:26:27.305Z,12.80
2023-02-11T08:27:27.295Z,13.50
2023-02-11T08:28:27.323Z,12.90
2023-02-11T08:29:27.284Z,13.90
2023-02-11T08:30:27.670Z,13.50
2023-02-11T08:31:27.434Z,12.40
2023-02-11T08:32:27.235Z,12.60
2023-02-11T08:33:27.218Z,13.00
2023-02-11T08:34:27.195Z,12.90
2023-02-11T08:35:27.192Z,12.40
2023-02-11T08:36:27.177Z,12.20
2023-02-11T08:37:27.187Z,13.00
2023-02-11T08:38:27.156Z,11.70
2023-02-11T08:39:27.139Z,12.60
2023-02-11T08:40:27.128Z,12.50
2023-02-11T08:41:27.138Z,11.40
2023-02-11T08:42:27.119Z,12.40
2023-02-11T08:43:27.105Z,12.30
2023-02-11T08:44:27.067Z,11.40
2023-02-11T08:45:27.084Z,10.70
2023-02-11T08:46:27.198Z,11.80
2023-02-11T08:47:27.034Z,12.50
2023-02-11T08:48:27.039Z,12.10
2023-02-11T08:49:27.014Z,12.70
2023-02-11T08:50:27.001Z,12.20
2023-02-11T08:51:26.982Z,12.30
2023-02-11T08:52:26.976Z,12.20
2023-02-11T08:53:26.972Z,12.80
2023-02-11T08:54:26.943Z,12.90
2023-02-11T08:55:26.962Z,12.00
2023-02-11T08:56:26.916Z,12.20
2023-02-11T08:57:26.908Z,11.80
2023-02-11T08:58:26.918Z,11.70
2023-02-11T08:59:26.888Z,12.10
2023-02-11T09:00:26.866Z,11.90
2023-02-11T09:01:26.906Z,12.50
2023-02-11T09:02:26.862Z,11.40
2023-02-11T09:03:26.858Z,11.60
2023-02-11T09:04:26.814Z,12.10
2023-02-11T09:05:26.803Z,11.50
2023-02-11T09:06:26.792Z,12.00
2023-02-11T09:07:26.780Z,12.20
2023-02-11T09:08:26.788Z,12.00
2023-02-11T09:09:26.774Z,11.80
2023-02-11T09:10:26.734Z,11.30
2023-02-11T09:11:26.735Z,12.10
2023-02-11T09:12:26.718Z,11.90
2023-02-11T09:13:26.741Z,12.40
2023-02-11T09:14:26.689Z,12.40
2023-02-11T09:15:26.686Z,12.80
2023-02-11T09:16:26.708Z,11.70
2023-02-11T09:17:26.658Z,12.30
2023-02-11T09:18:26.659Z,12.40
2023-02-11T09:19:26.625Z,12.60
2023-02-11T09:20:26.613Z,11.90
2023-02-11T09:21:26.608Z,12.20
2023-02-11T09:22:26.599Z,12.40
2023-02-11T09:23:26.593Z,12.80
2023-02-11T09:24:26.597Z,12.60
2023-02-11T09:25:26.546Z,12.30
2023-02-11T09:26:32.557Z,12.50
2023-02-11T09:27:26.529Z,12.00
2023-02-11T09:28:26.565Z,12.50
2023-02-11T09:29:26.578Z,12.10
2023-02-11T09:30:26.644Z,11.80
2023-02-11T09:31:26.665Z,11.50
2023-02-11T09:32:26.455Z,11.70
2023-02-11T09:33:26.478Z,13.40
2023-02-11T09:34:26.448Z,12.60
2023-02-11T09:35:26.424Z,12.30
2023-02-11T09:36:26.409Z,12.30
2023-02-11T09:37:26.406Z,12.10
2023-02-11T09:38:26.385Z,12.30
2023-02-11T09:39:26.400Z,12.40
2023-02-11T09:40:26.362Z,12.80
2023-02-11T09:41:26.350Z,12.40
2023-02-11T09:42:26.351Z,12.30
2023-02-11T09:43:26.327Z,12.80
2023-02-11T09:45:36.474Z,12.60
2023-02-11T09:46:37.434Z,13.10
2023-02-11T09:47:37.419Z,13.10
2023-02-11T09:48:37.425Z,13.00
2023-02-11T09:49:37.389Z,13.70
2023-02-11T09:50:37.379Z,13.10
2023-02-11T09:51:37.361Z,12.70
2023-02-11T09:52:37.354Z,13.30
2023-02-11T09:53:37.362Z,13.40
2023-02-11T09:54:37.351Z,12.30
2023-02-11T09:55:37.311Z,13.10
2023-02-11T09:56:37.305Z,12.80
2023-02-11T09:57:37.293Z,13.40
2023-02-11T09:58:37.294Z,12.90
2023-02-11T09:59:37.284Z,12.80
2023-02-11T10:00:37.262Z,12.90
2023-02-11T10:01:37.276Z,13.00
2023-02-11T10:02:37.245Z,13.10
2023-02-11T10:03:37.238Z,12.90
2023-02-11T10:04:37.279Z,14.00
2023-02-11T10:05:37.186Z,13.40
2023-02-11T10:06:37.195Z,13.10
2023-02-11T10:07:37.188Z,12.80
2023-02-11T10:08:37.177Z,12.80
2023-02-11T10:09:37.138Z,14.40
2023-02-11T10:10:37.129Z,13.20
2023-02-11T10:11:37.124Z,12.80
2023-02-11T10:12:37.176Z,11.90
2023-02-11T10:13:37.125Z,13.80
2023-02-11T10:14:37.080Z,13.60
2023-02-11T10:15:37.119Z,12.70
2023-02-11T10:16:37.052Z,14.00
2023-02-11T10:17:37.047Z,13.10
2023-02-11T10:18:37.043Z,13.60
2023-02-11T10:19:37.022Z,14.30
2023-02-11T10:20:37.023Z,14.00
2023-02-11T10:21:36.982Z,13.50
2023-02-11T10:22:36.975Z,14.70
2023-02-11T10:23:36.958Z,14.30
2023-02-11T10:24:36.951Z,13.50
2023-02-11T10:25:36.975Z,14.20
2023-02-11T10:26:36.925Z,14.20
2023-02-11T10:27:36.907Z,14.00
2023-02-11T10:28:37.004Z,14.90
2023-02-11T10:29:36.882Z,14.20
2023-02-11T10:30:36.943Z,14.20
2023-02-11T10:31:37.032Z,14.10
2023-02-11T10:32:36.850Z,14.50
2023-02-11T10:33:36.871Z,14.50
2023-02-11T10:34:36.826Z,15.10
2023-02-11T10:35:36.836Z,15.20
2023-02-11T10:36:36.794Z,16.20
2023-02-11T10:37:36.778Z,15.80
2023-02-11T10:38:36.767Z,14.60
2023-02-11T10:39:36.752Z,15.20
2023-02-11T10:40:36.761Z,15.20
2023-02-11T10:41:36.735Z,14.70
2023-02-11T10:42:36.719Z,14.90
2023-02-11T10:43:36.724Z,15.00
2023-02-11T10:44:36.690Z,13.40
2023-02-11T10:45:36.695Z,14.60
2023-02-11T10:46:36.725Z,14.60
2023-02-11T10:47:36.650Z,14.90
2023-02-11T10:48:36.640Z,14.60
2023-02-11T10:49:36.621Z,14.30
2023-02-11T10:50:36.633Z,15.30
2023-02-11T10:51:36.597Z,16.30
2023-02-11T10:52:36.594Z,14.30
2023-02-11T10:53:36.571Z,15.20
2023-02-11T10:54:36.567Z,15.20
2023-02-11T10:55:36.589Z,14.10
2023-02-11T10:56:36.557Z,15.10
2023-02-11T10:57:36.522Z,14.90
2023-02-11T10:58:36.516Z,14.80
2023-02-11T10:59:36.498Z,14.50
2023-02-11T11:00:36.485Z,14.40
2023-02-11T11:01:36.500Z,14.20
2023-02-11T11:02:36.461Z,16.20
2023-02-11T11:03:36.461Z,16.30
2023-02-11T11:04:36.500Z,15.40
2023-02-11T11:05:36.419Z,15.40
2023-02-11T11:06:36.425Z,15.40
2023-02-11T11:07:36.390Z,16.00
2023-02-11T11:08:36.382Z,15.40
2023-02-11T11:09:36.390Z,15.90
2023-02-11T11:10:36.357Z,14.20
2023-02-11T11:11:36.342Z,15.30
2023-02-11T11:12:36.334Z,15.20
2023-02-11T11:13:36.317Z,14.60
2023-02-11T11:14:36.332Z,16.00
2023-02-11T11:15:36.305Z,16.30
2023-02-11T11:16:36.293Z,15.20
2023-02-11T11:17:36.273Z,15.00
2023-02-11T11:18:36.259Z,15.80
2023-02-11T11:19:36.259Z,15.90
2023-02-11T11:20:36.260Z,16.10
2023-02-11T11:21:36.209Z,16.20
2023-02-11T11:22:36.206Z,15.70
2023-02-11T11:23:36.196Z,15.20
2023-02-11T11:24:36.217Z,16.90
2023-02-11T11:25:36.169Z,16.40
2023-02-11T11:26:36.177Z,16.80
2023-02-11T11:27:36.136Z,15.40
2023-02-11T11:28:36.180Z,15.70
2023-02-11T11:29:36.133Z,16.00
2023-02-11T11:30:36.161Z,16.80
2023-02-11T11:31:36.268Z,16.10
2023-02-11T11:32:36.079Z,16.40
2023-02-11T11:33:36.056Z,15.70
2023-02-11T11:34:36.066Z,16.90
2023-02-11T11:35:36.033Z,15.80
2023-02-11T11:36:36.054Z,15.40
2023-02-11T11:37:36.021Z,15.80
2023-02-11T11:38:36.017Z,15.50
2023-02-11T11:39:36.012Z,15.40
2023-02-11T11:40:35.972Z,16.40
2023-02-11T11:41:35.982Z,15.40
2023-02-11T11:42:35.945Z,14.70
2023-02-11T11:43:35.924Z,14.90
2023-02-11T11:44:35.920Z,14.60
2023-02-11T11:45:35.900Z,15.50
2023-02-11T11:46:35.995Z,16.40
2023-02-11T11:47:35.872Z,16.10
2023-02-11T11:48:35.864Z,16.10
2023-02-11T11:49:35.875Z,14.70
2023-02-11T11:50:35.840Z,15.90
2023-02-11T11:51:35.821Z,16.70
2023-02-11T11:52:35.808Z,16.70
2023-02-11T11:53:35.806Z,16.00
2023-02-11T11:54:35.802Z,16.10
2023-02-11T11:55:35.786Z,15.60
2023-02-11T11:56:35.759Z,15.50
2023-02-11T11:57:35.743Z,15.40
2023-02-11T11:58:35.747Z,15.40
2023-02-11T11:59:35.776Z,15.30
2023-02-11T12:00:35.713Z,15.10
2023-02-11T12:01:35.739Z,15.00
2023-02-11T12:02:35.685Z,15.40
2023-02-11T12:03:35.670Z,13.50
2023-02-11T12:04:35.675Z,15.00
2023-02-11T12:05:35.637Z,14.80
2023-02-11T12:06:35.642Z,15.60
2023-02-11T12:07:35.637Z,14.30
2023-02-11T12:08:35.638Z,14.60
2023-02-11T12:09:35.604Z,16.00
2023-02-11T12:10:35.582Z,16.20
2023-02-11T12:11:35.570Z,13.80
2023-02-11T12:12:35.570Z,16.20
2023-02-11T12:13:35.537Z,16.10
2023-02-11T12:14:35.528Z,15.10
2023-02-11T12:15:35.544Z,17.50
2023-02-11T12:16:35.562Z,16.60
2023-02-11T12:17:35.494Z,15.60
2023-02-11T12:18:35.477Z,15.40
2023-02-11T12:19:35.463Z,15.70
2023-02-11T12:20:35.469Z,16.50
2023-02-11T12:21:35.433Z,15.60
2023-02-11T12:22:35.427Z,17.40
2023-02-11T12:23:35.408Z,16.00
2023-02-11T12:24:35.417Z,14.90
2023-02-11T12:25:35.409Z,16.10
2023-02-11T12:26:35.388Z,17.30
2023-02-11T12:27:35.372Z,16.90
2023-02-11T12:28:35.424Z,15.70
2023-02-11T12:29:35.339Z,15.80
2023-02-11T12:30:35.356Z,17.60
2023-02-11T12:31:35.430Z,16.80
2023-02-11T12:32:35.315Z,18.00
2023-02-11T12:33:35.281Z,16.60
2023-02-11T12:34:35.273Z,16.70
2023-02-11T12:35:35.257Z,17.90
2023-02-11T12:36:35.257Z,18.40
2023-02-11T12:37:35.248Z,19.10
2023-02-11T12:38:35.229Z,18.50
2023-02-11T12:39:35.202Z,17.90
2023-02-11T12:40:35.195Z,18.30
2023-02-11T12:41:35.181Z,17.80
2023-02-11T12:42:35.201Z,18.50
2023-02-11T12:43:35.152Z,19.50
2023-02-11T12:44:35.145Z,17.80
2023-02-11T12:45:35.214Z,19.30
2023-02-11T12:46:35.127Z,19.10
2023-02-11T12:47:35.106Z,17.40
2023-02-11T12:48:35.880Z,17.50
2023-02-11T12:49:35.118Z,17.40
2023-02-11T12:50:35.094Z,17.60
2023-02-11T12:51:35.069Z,18.00
2023-02-11T12:52:35.044Z,18.70
2023-02-11T12:53:35.029Z,16.80